sensor_id;sensor_type;location;lat;lon;timestamp;P1;durP1;ratioP1;P2;durP2;ratioP2
18336;SDS011;9294;51.106;7.028;2023-04-16T00:00:12;1.40;;;1.40;;
18336;SDS011;9294;51.106;7.028;2023-04-16T00:02:38;1.60;;;1.60;;
18336;SDS011;9294;51.106;7.028;2023-04-16T00:05:05;1.50;;;1.50;;
18336;SDS011;9294;51.106;7.028;2023-04-16T00:07:32;1.58;;;1.58;;
18336;SDS011;9294;51.106;7.028;2023-04-16T00:09:59;1.90;;;1.80;;
18336;SDS011;9294;51.106;7.028;2023-04-16T00:12:26;1.70;;;1.70;;
18336;SDS011;9294;51.106;7.028;2023-04-16T00:14:54;1.60;;;1.60;;
18336;SDS011;9294;51.106;7.028;2023-04-16T00:17:21;1.60;;;1.60;;
18336;SDS011;9294;51.106;7.028;2023-04-16T00:19:47;1.88;;;1.77;;
18336;SDS011;9294;51.106;7.028;2023-04-16T00:22:14;1.67;;;1.67;;
18336;SDS011;9294;51.106;7.028;2023-04-16T00:24:41;1.73;;;1.73;;
18336;SDS011;9294;51.106;7.028;2023-04-16T00:27:07;1.50;;;1.50;;
18336;SDS011;9294;51.106;7.028;2023-04-16T00:29:34;1.70;;;1.70;;
18336;SDS011;9294;51.106;7.028;2023-04-16T00:32:02;2.00;;;1.90;;
18336;SDS011;9294;51.106;7.028;2023-04-16T00:34:30;2.10;;;2.10;;
18336;SDS011;9294;51.106;7.028;2023-04-16T00:36:56;2.00;;;1.90;;
18336;SDS011;9294;51.106;7.028;2023-04-16T00:39:23;1.77;;;1.73;;
18336;SDS011;9294;51.106;7.028;2023-04-16T00:41:50;2.25;;;2.15;;
18336;SDS011;9294;51.106;7.028;2023-04-16T00:44:16;1.80;;;1.80;;
18336;SDS011;9294;51.106;7.028;2023-04-16T00:46:43;2.50;;;2.40;;
18336;SDS011;9294;51.106;7.028;2023-04-16T00:49:12;2.55;;;2.45;;
18336;SDS011;9294;51.106;7.028;2023-04-16T00:51:39;1.65;;;1.65;;
18336;SDS011;9294;51.106;7.028;2023-04-16T00:54:06;1.98;;;1.98;;
18336;SDS011;9294;51.106;7.028;2023-04-16T00:56:33;2.45;;;2.35;;
18336;SDS011;9294;51.106;7.028;2023-04-16T00:59:01;2.40;;;2.30;;
18336;SDS011;9294;51.106;7.028;2023-04-16T01:01:27;2.50;;;2.40;;
18336;SDS011;9294;51.106;7.028;2023-04-16T01:03:54;2.45;;;2.35;;
18336;SDS011;9294;51.106;7.028;2023-04-16T01:06:23;2.60;;;2.50;;
18336;SDS011;9294;51.106;7.028;2023-04-16T01:08:50;2.45;;;2.35;;
18336;SDS011;9294;51.106;7.028;2023-04-16T01:11:16;2.60;;;2.50;;
18336;SDS011;9294;51.106;7.028;2023-04-16T01:13:43;3.25;;;3.05;;
18336;SDS011;9294;51.106;7.028;2023-04-16T01:16:10;2.70;;;2.60;;
18336;SDS011;9294;51.106;7.028;2023-04-16T01:18:38;3.10;;;3.00;;
18336;SDS011;9294;51.106;7.028;2023-04-16T01:21:06;3.08;;;2.97;;
18336;SDS011;9294;51.106;7.028;2023-04-16T01:23:33;2.97;;;2.78;;
18336;SDS011;9294;51.106;7.028;2023-04-16T01:25:59;3.17;;;2.97;;
18336;SDS011;9294;51.106;7.028;2023-04-16T01:28:26;2.92;;;2.83;;
18336;SDS011;9294;51.106;7.028;2023-04-16T01:30:53;3.72;;;3.53;;
18336;SDS011;9294;51.106;7.028;2023-04-16T01:33:20;2.88;;;2.78;;
18336;SDS011;9294;51.106;7.028;2023-04-16T01:35:46;4.03;;;3.67;;
18336;SDS011;9294;51.106;7.028;2023-04-16T01:38:14;3.95;;;3.70;;
18336;SDS011;9294;51.106;7.028;2023-04-16T01:40:41;3.70;;;3.50;;
18336;SDS011;9294;51.106;7.028;2023-04-16T01:43:08;3.10;;;3.00;;
18336;SDS011;9294;51.106;7.028;2023-04-16T01:45:34;3.42;;;3.30;;
18336;SDS011;9294;51.106;7.028;2023-04-16T01:48:02;4.05;;;3.85;;
18336;SDS011;9294;51.106;7.028;2023-04-16T01:50:29;3.47;;;3.33;;
18336;SDS011;9294;51.106;7.028;2023-04-16T01:52:56;3.38;;;3.28;;
18336;SDS011;9294;51.106;7.028;2023-04-16T01:55:24;3.95;;;3.75;;
18336;SDS011;9294;51.106;7.028;2023-04-16T01:57:51;3.97;;;3.78;;
18336;SDS011;9294;51.106;7.028;2023-04-16T02:00:18;4.40;;;4.15;;
18336;SDS011;9294;51.106;7.028;2023-04-16T02:02:45;4.25;;;3.95;;
18336;SDS011;9294;51.106;7.028;2023-04-16T02:05:13;4.13;;;3.92;;
18336;SDS011;9294;51.106;7.028;2023-04-16T02:07:39;4.43;;;4.13;;
18336;SDS011;9294;51.106;7.028;2023-04-16T02:10:06;4.15;;;3.88;;
18336;SDS011;9294;51.106;7.028;2023-04-16T02:12:35;4.13;;;3.92;;
18336;SDS011;9294;51.106;7.028;2023-04-16T02:15:02;4.30;;;4.10;;
18336;SDS011;9294;51.106;7.028;2023-04-16T02:17:29;4.68;;;4.38;;
18336;SDS011;9294;51.106;7.028;2023-04-16T02:19:56;4.80;;;4.50;;
18336;SDS011;9294;51.106;7.028;2023-04-16T02:22:23;5.10;;;4.80;;
18336;SDS011;9294;51.106;7.028;2023-04-16T02:24:49;4.95;;;4.63;;
18336;SDS011;9294;51.106;7.028;2023-04-16T02:27:16;4.43;;;4.13;;
18336;SDS011;9294;51.106;7.028;2023-04-16T02:29:44;4.65;;;4.38;;
18336;SDS011;9294;51.106;7.028;2023-04-16T02:32:11;4.90;;;4.60;;
18336;SDS011;9294;51.106;7.028;2023-04-16T02:34:37;4.93;;;4.53;;
18336;SDS011;9294;51.106;7.028;2023-04-16T02:37:05;4.63;;;4.32;;
18336;SDS011;9294;51.106;7.028;2023-04-16T02:39:32;4.63;;;4.32;;
18336;SDS011;9294;51.106;7.028;2023-04-16T02:41:58;5.05;;;4.75;;
18336;SDS011;9294;51.106;7.028;2023-04-16T02:44:26;4.72;;;4.38;;
18336;SDS011;9294;51.106;7.028;2023-04-16T02:46:54;4.40;;;4.20;;
18336;SDS011;9294;51.106;7.028;2023-04-16T02:49:21;4.88;;;4.47;;
18336;SDS011;9294;51.106;7.028;2023-04-16T02:51:48;4.93;;;4.63;;
18336;SDS011;9294;51.106;7.028;2023-04-16T02:54:15;4.78;;;4.50;;
18336;SDS011;9294;51.106;7.028;2023-04-16T02:56:42;4.72;;;4.50;;
18336;SDS011;9294;51.106;7.028;2023-04-16T02:59:08;5.13;;;4.88;;
18336;SDS011;9294;51.106;7.028;2023-04-16T03:01:35;5.18;;;4.88;;
18336;SDS011;9294;51.106;7.028;2023-04-16T03:04:03;5.10;;;4.80;;
18336;SDS011;9294;51.106;7.028;2023-04-16T03:06:30;4.93;;;4.63;;
18336;SDS011;9294;51.106;7.028;2023-04-16T03:08:57;5.30;;;5.00;;
18336;SDS011;9294;51.106;7.028;2023-04-16T03:11:23;5.35;;;4.95;;
18336;SDS011;9294;51.106;7.028;2023-04-16T03:13:50;5.00;;;4.70;;
18336;SDS011;9294;51.106;7.028;2023-04-16T03:16:17;4.70;;;4.50;;
18336;SDS011;9294;51.106;7.028;2023-04-16T03:18:44;4.93;;;4.63;;
18336;SDS011;9294;51.106;7.028;2023-04-16T03:21:12;5.10;;;4.80;;
18336;SDS011;9294;51.106;7.028;2023-04-16T03:23:39;5.63;;;5.22;;
18336;SDS011;9294;51.106;7.028;2023-04-16T03:26:05;4.60;;;4.40;;
18336;SDS011;9294;51.106;7.028;2023-04-16T03:28:32;5.00;;;4.70;;
18336;SDS011;9294;51.106;7.028;2023-04-16T03:30:59;5.50;;;5.20;;
18336;SDS011;9294;51.106;7.028;2023-04-16T03:33:26;5.60;;;5.30;;
18336;SDS011;9294;51.106;7.028;2023-04-16T03:35:55;5.35;;;5.05;;
18336;SDS011;9294;51.106;7.028;2023-04-16T03:38:24;5.13;;;4.72;;
18336;SDS011;9294;51.106;7.028;2023-04-16T03:40:51;5.75;;;5.35;;
18336;SDS011;9294;51.106;7.028;2023-04-16T03:43:17;5.38;;;5.07;;
18336;SDS011;9294;51.106;7.028;2023-04-16T03:45:44;5.38;;;5.07;;
18336;SDS011;9294;51.106;7.028;2023-04-16T03:48:11;4.93;;;4.63;;
18336;SDS011;9294;51.106;7.028;2023-04-16T03:50:38;6.00;;;5.55;;
18336;SDS011;9294;51.106;7.028;2023-04-16T03:53:05;5.55;;;5.25;;
18336;SDS011;9294;51.106;7.028;2023-04-16T03:55:33;5.97;;;5.47;;
18336;SDS011;9294;51.106;7.028;2023-04-16T03:58:00;6.20;;;5.80;;
18336;SDS011;9294;51.106;7.028;2023-04-16T04:00:27;5.35;;;5.05;;
18336;SDS011;9294;51.106;7.028;2023-04-16T04:02:54;5.47;;;5.18;;
18336;SDS011;9294;51.106;7.028;2023-04-16T04:05:21;6.70;;;6.30;;
18336;SDS011;9294;51.106;7.028;2023-04-16T04:07:47;5.80;;;5.38;;
18336;SDS011;9294;51.106;7.028;2023-04-16T04:10:14;5.70;;;5.40;;
18336;SDS011;9294;51.106;7.028;2023-04-16T04:12:42;6.82;;;6.32;;
18336;SDS011;9294;51.106;7.028;2023-04-16T04:15:09;6.35;;;5.95;;
18336;SDS011;9294;51.106;7.028;2023-04-16T04:17:36;6.40;;;6.00;;
18336;SDS011;9294;51.106;7.028;2023-04-16T04:20:03;6.43;;;6.03;;
18336;SDS011;9294;51.106;7.028;2023-04-16T04:22:31;6.15;;;5.75;;
18336;SDS011;9294;51.106;7.028;2023-04-16T04:24:58;6.45;;;5.97;;
18336;SDS011;9294;51.106;7.028;2023-04-16T04:27:24;6.53;;;6.13;;
18336;SDS011;9294;51.106;7.028;2023-04-16T04:29:52;6.55;;;6.10;;
18336;SDS011;9294;51.106;7.028;2023-04-16T04:32:19;6.78;;;6.28;;
18336;SDS011;9294;51.106;7.028;2023-04-16T04:34:46;7.15;;;6.65;;
18336;SDS011;9294;51.106;7.028;2023-04-16T04:37:12;6.75;;;6.25;;
18336;SDS011;9294;51.106;7.028;2023-04-16T04:39:39;6.55;;;6.15;;
18336;SDS011;9294;51.106;7.028;2023-04-16T04:42:06;7.43;;;6.93;;
18336;SDS011;9294;51.106;7.028;2023-04-16T04:44:33;7.05;;;6.55;;
18336;SDS011;9294;51.106;7.028;2023-04-16T04:47:01;6.80;;;6.30;;
18336;SDS011;9294;51.106;7.028;2023-04-16T04:49:28;7.28;;;6.78;;
18336;SDS011;9294;51.106;7.028;2023-04-16T04:51:55;7.10;;;6.70;;
18336;SDS011;9294;51.106;7.028;2023-04-16T04:54:22;6.75;;;6.25;;
18336;SDS011;9294;51.106;7.028;2023-04-16T04:56:49;7.40;;;6.90;;
18336;SDS011;9294;51.106;7.028;2023-04-16T04:59:16;7.97;;;7.38;;
18336;SDS011;9294;51.106;7.028;2023-04-16T05:01:43;6.97;;;6.57;;
18336;SDS011;9294;51.106;7.028;2023-04-16T05:04:11;5.80;;;5.47;;
18336;SDS011;9294;51.106;7.028;2023-04-16T05:06:37;7.15;;;6.65;;
18336;SDS011;9294;51.106;7.028;2023-04-16T05:09:04;7.20;;;6.70;;
18336;SDS011;9294;51.106;7.028;2023-04-16T05:11:35;7.88;;;7.28;;
18336;SDS011;9294;51.106;7.028;2023-04-16T05:14:02;7.15;;;6.65;;
18336;SDS011;9294;51.106;7.028;2023-04-16T05:16:29;6.70;;;6.30;;
18336;SDS011;9294;51.106;7.028;2023-04-16T05:18:55;6.95;;;6.45;;
18336;SDS011;9294;51.106;7.028;2023-04-16T05:21:24;7.15;;;6.65;;
18336;SDS011;9294;51.106;7.028;2023-04-16T05:23:51;7.95;;;7.35;;
18336;SDS011;9294;51.106;7.028;2023-04-16T05:26:18;6.90;;;6.50;;
18336;SDS011;9294;51.106;7.028;2023-04-16T05:28:44;7.80;;;7.20;;
18336;SDS011;9294;51.106;7.028;2023-04-16T05:31:11;7.05;;;6.60;;
18336;SDS011;9294;51.106;7.028;2023-04-16T05:33:38;7.38;;;6.78;;
18336;SDS011;9294;51.106;7.028;2023-04-16T05:36:06;7.97;;;7.38;;
18336;SDS011;9294;51.106;7.028;2023-04-16T05:38:34;6.57;;;6.18;;
18336;SDS011;9294;51.106;7.028;2023-04-16T05:41:00;7.75;;;7.15;;
18336;SDS011;9294;51.106;7.028;2023-04-16T05:43:27;6.80;;;6.30;;
18336;SDS011;9294;51.106;7.028;2023-04-16T05:45:54;7.03;;;6.60;;
18336;SDS011;9294;51.106;7.028;2023-04-16T05:48:20;6.70;;;6.20;;
18336;SDS011;9294;51.106;7.028;2023-04-16T05:50:47;6.85;;;6.35;;
18336;SDS011;9294;51.106;7.028;2023-04-16T05:53:14;6.65;;;6.18;;
18336;SDS011;9294;51.106;7.028;2023-04-16T05:55:44;7.22;;;6.65;;
18336;SDS011;9294;51.106;7.028;2023-04-16T05:58:11;6.22;;;5.82;;
18336;SDS011;9294;51.106;7.028;2023-04-16T06:00:37;7.18;;;6.57;;
18336;SDS011;9294;51.106;7.028;2023-04-16T06:03:04;7.30;;;6.70;;
18336;SDS011;9294;51.106;7.028;2023-04-16T06:05:31;6.75;;;6.25;;
18336;SDS011;9294;51.106;7.028;2023-04-16T06:07:58;6.30;;;5.80;;
18336;SDS011;9294;51.106;7.028;2023-04-16T06:10:25;6.50;;;6.00;;
18336;SDS011;9294;51.106;7.028;2023-04-16T06:12:53;6.78;;;6.25;;
18336;SDS011;9294;51.106;7.028;2023-04-16T06:15:20;7.10;;;6.50;;
18336;SDS011;9294;51.106;7.028;2023-04-16T06:17:48;6.30;;;5.80;;
18336;SDS011;9294;51.106;7.028;2023-04-16T06:20:15;6.47;;;6.07;;
18336;SDS011;9294;51.106;7.028;2023-04-16T06:22:42;6.55;;;6.05;;
18336;SDS011;9294;51.106;7.028;2023-04-16T06:25:08;6.47;;;5.97;;
18336;SDS011;9294;51.106;7.028;2023-04-16T06:27:35;6.38;;;5.88;;
18336;SDS011;9294;51.106;7.028;2023-04-16T06:30:04;6.18;;;5.78;;
18336;SDS011;9294;51.106;7.028;2023-04-16T06:32:36;6.55;;;6.05;;
18336;SDS011;9294;51.106;7.028;2023-04-16T06:35:03;5.78;;;5.38;;
18336;SDS011;9294;51.106;7.028;2023-04-16T06:37:30;6.35;;;5.85;;
18336;SDS011;9294;51.106;7.028;2023-04-16T06:39:56;6.45;;;6.05;;
18336;SDS011;9294;51.106;7.028;2023-04-16T06:42:23;6.93;;;6.32;;
18336;SDS011;9294;51.106;7.028;2023-04-16T06:44:50;5.90;;;5.50;;
18336;SDS011;9294;51.106;7.028;2023-04-16T06:47:18;6.22;;;5.75;;
18336;SDS011;9294;51.106;7.028;2023-04-16T06:49:45;6.53;;;6.07;;
18336;SDS011;9294;51.106;7.028;2023-04-16T06:52:11;6.03;;;5.63;;
18336;SDS011;9294;51.106;7.028;2023-04-16T06:54:38;5.95;;;5.55;;
18336;SDS011;9294;51.106;7.028;2023-04-16T06:57:05;6.40;;;5.90;;
18336;SDS011;9294;51.106;7.028;2023-04-16T06:59:31;6.25;;;5.75;;
18336;SDS011;9294;51.106;7.028;2023-04-16T07:01:58;6.25;;;5.70;;
18336;SDS011;9294;51.106;7.028;2023-04-16T07:04:26;5.97;;;5.53;;
18336;SDS011;9294;51.106;7.028;2023-04-16T07:06:53;5.80;;;5.40;;
18336;SDS011;9294;51.106;7.028;2023-04-16T07:09:19;6.47;;;5.88;;
18336;SDS011;9294;51.106;7.028;2023-04-16T07:11:46;5.95;;;5.55;;
18336;SDS011;9294;51.106;7.028;2023-04-16T07:14:13;6.45;;;5.93;;
18336;SDS011;9294;51.106;7.028;2023-04-16T07:16:40;6.20;;;5.70;;
18336;SDS011;9294;51.106;7.028;2023-04-16T07:19:06;6.38;;;5.88;;
18336;SDS011;9294;51.106;7.028;2023-04-16T07:21:34;6.40;;;5.90;;
18336;SDS011;9294;51.106;7.028;2023-04-16T07:24:01;6.07;;;5.68;;
18336;SDS011;9294;51.106;7.028;2023-04-16T07:26:28;5.97;;;5.47;;
18336;SDS011;9294;51.106;7.028;2023-04-16T07:28:55;6.00;;;5.50;;
18336;SDS011;9294;51.106;7.028;2023-04-16T07:31:22;6.25;;;5.85;;
18336;SDS011;9294;51.106;7.028;2023-04-16T07:33:48;5.93;;;5.53;;
18336;SDS011;9294;51.106;7.028;2023-04-16T07:36:15;5.97;;;5.57;;
18336;SDS011;9294;51.106;7.028;2023-04-16T07:38:43;5.72;;;5.32;;
18336;SDS011;9294;51.106;7.028;2023-04-16T07:41:10;6.15;;;5.70;;
18336;SDS011;9294;51.106;7.028;2023-04-16T07:43:37;6.72;;;6.22;;
18336;SDS011;9294;51.106;7.028;2023-04-16T07:46:04;6.10;;;5.70;;
18336;SDS011;9294;51.106;7.028;2023-04-16T07:48:31;6.57;;;6.07;;
18336;SDS011;9294;51.106;7.028;2023-04-16T07:50:58;5.55;;;5.20;;
18336;SDS011;9294;51.106;7.028;2023-04-16T07:53:24;5.97;;;5.57;;
18336;SDS011;9294;51.106;7.028;2023-04-16T07:55:52;5.80;;;5.43;;
18336;SDS011;9294;51.106;7.028;2023-04-16T07:58:19;5.82;;;5.43;;
18336;SDS011;9294;51.106;7.028;2023-04-16T08:00:46;6.68;;;6.18;;
18336;SDS011;9294;51.106;7.028;2023-04-16T08:03:13;6.45;;;6.05;;
18336;SDS011;9294;51.106;7.028;2023-04-16T08:05:40;5.80;;;5.40;;
18336;SDS011;9294;51.106;7.028;2023-04-16T08:08:06;5.90;;;5.50;;
18336;SDS011;9294;51.106;7.028;2023-04-16T08:10:33;5.57;;;5.18;;
18336;SDS011;9294;51.106;7.028;2023-04-16T08:13:01;6.03;;;5.63;;
18336;SDS011;9294;51.106;7.028;2023-04-16T08:15:28;6.10;;;5.70;;
18336;SDS011;9294;51.106;7.028;2023-04-16T08:17:55;6.43;;;6.03;;
18336;SDS011;9294;51.106;7.028;2023-04-16T08:20:21;6.38;;;5.93;;
18336;SDS011;9294;51.106;7.028;2023-04-16T08:22:48;6.40;;;5.88;;
18336;SDS011;9294;51.106;7.028;2023-04-16T08:25:15;5.97;;;5.57;;
18336;SDS011;9294;51.106;7.028;2023-04-16T08:27:42;6.97;;;6.43;;
18336;SDS011;9294;51.106;7.028;2023-04-16T08:30:10;5.95;;;5.50;;
18336;SDS011;9294;51.106;7.028;2023-04-16T08:32:37;5.93;;;5.53;;
18336;SDS011;9294;51.106;7.028;2023-04-16T08:35:04;6.22;;;5.72;;
18336;SDS011;9294;51.106;7.028;2023-04-16T08:37:31;5.80;;;5.40;;
18336;SDS011;9294;51.106;7.028;2023-04-16T08:39:57;6.93;;;6.32;;
18336;SDS011;9294;51.106;7.028;2023-04-16T08:42:27;5.80;;;5.40;;
18336;SDS011;9294;51.106;7.028;2023-04-16T08:44:58;5.78;;;5.38;;
18336;SDS011;9294;51.106;7.028;2023-04-16T08:47:33;6.30;;;5.90;;
18336;SDS011;9294;51.106;7.028;2023-04-16T08:50:02;6.47;;;5.90;;
18336;SDS011;9294;51.106;7.028;2023-04-16T08:52:29;5.80;;;5.40;;
18336;SDS011;9294;51.106;7.028;2023-04-16T08:55:00;5.82;;;5.45;;
18336;SDS011;9294;51.106;7.028;2023-04-16T08:57:34;6.38;;;5.93;;
18336;SDS011;9294;51.106;7.028;2023-04-16T09:00:05;6.00;;;5.60;;
18336;SDS011;9294;51.106;7.028;2023-04-16T09:02:36;5.80;;;5.30;;
18336;SDS011;9294;51.106;7.028;2023-04-16T09:05:04;5.55;;;5.22;;
18336;SDS011;9294;51.106;7.028;2023-04-16T09:07:32;6.70;;;6.13;;
18336;SDS011;9294;51.106;7.028;2023-04-16T09:09:59;7.15;;;6.55;;
18336;SDS011;9294;51.106;7.028;2023-04-16T09:12:26;6.05;;;5.57;;
18336;SDS011;9294;51.106;7.028;2023-04-16T09:14:55;6.25;;;5.85;;
18336;SDS011;9294;51.106;7.028;2023-04-16T09:17:23;6.13;;;5.72;;
18336;SDS011;9294;51.106;7.028;2023-04-16T09:19:51;5.82;;;5.45;;
18336;SDS011;9294;51.106;7.028;2023-04-16T09:22:18;5.30;;;4.90;;
18336;SDS011;9294;51.106;7.028;2023-04-16T09:24:45;6.60;;;6.10;;
18336;SDS011;9294;51.106;7.028;2023-04-16T09:27:12;6.13;;;5.68;;
18336;SDS011;9294;51.106;7.028;2023-04-16T09:29:39;6.32;;;5.82;;
18336;SDS011;9294;51.106;7.028;2023-04-16T09:32:07;6.07;;;5.68;;
18336;SDS011;9294;51.106;7.028;2023-04-16T09:34:52;6.75;;;6.20;;
18336;SDS011;9294;51.106;7.028;2023-04-16T09:37:21;6.97;;;6.32;;
18336;SDS011;9294;51.106;7.028;2023-04-16T09:39:52;7.88;;;6.43;;
18336;SDS011;9294;51.106;7.028;2023-04-16T09:42:21;9.80;;;6.40;;
18336;SDS011;9294;51.106;7.028;2023-04-16T09:44:49;6.43;;;5.80;;
18336;SDS011;9294;51.106;7.028;2023-04-16T09:47:16;6.55;;;5.95;;
18336;SDS011;9294;51.106;7.028;2023-04-16T09:49:43;6.75;;;6.10;;
18336;SDS011;9294;51.106;7.028;2023-04-16T09:52:12;6.50;;;5.90;;
18336;SDS011;9294;51.106;7.028;2023-04-16T09:54:44;7.10;;;6.50;;
18336;SDS011;9294;51.106;7.028;2023-04-16T09:57:12;6.95;;;6.20;;
18336;SDS011;9294;51.106;7.028;2023-04-16T09:59:38;6.75;;;6.03;;
18336;SDS011;9294;51.106;7.028;2023-04-16T10:02:06;8.93;;;6.82;;
18336;SDS011;9294;51.106;7.028;2023-04-16T10:04:43;9.00;;;6.47;;
18336;SDS011;9294;51.106;7.028;2023-04-16T10:07:12;9.48;;;6.97;;
18336;SDS011;9294;51.106;7.028;2023-04-16T10:09:39;8.55;;;6.57;;
18336;SDS011;9294;51.106;7.028;2023-04-16T10:12:06;10.95;;;7.75;;
18336;SDS011;9294;51.106;7.028;2023-04-16T10:14:33;9.13;;;7.63;;
18336;SDS011;9294;51.106;7.028;2023-04-16T10:17:01;10.80;;;7.72;;
18336;SDS011;9294;51.106;7.028;2023-04-16T10:19:29;11.88;;;8.18;;
18336;SDS011;9294;51.106;7.028;2023-04-16T10:21:56;10.68;;;7.18;;
18336;SDS011;9294;51.106;7.028;2023-04-16T10:24:25;11.48;;;7.85;;
18336;SDS011;9294;51.106;7.028;2023-04-16T10:26:52;9.95;;;7.90;;
18336;SDS011;9294;51.106;7.028;2023-04-16T10:29:19;13.07;;;7.72;;
18336;SDS011;9294;51.106;7.028;2023-04-16T10:31:47;15.75;;;7.75;;
18336;SDS011;9294;51.106;7.028;2023-04-16T10:34:14;8.50;;;7.15;;
18336;SDS011;9294;51.106;7.028;2023-04-16T10:36:45;14.32;;;8.48;;
18336;SDS011;9294;51.106;7.028;2023-04-16T10:39:15;11.27;;;7.57;;
18336;SDS011;9294;51.106;7.028;2023-04-16T10:41:45;11.23;;;8.18;;
18336;SDS011;9294;51.106;7.028;2023-04-16T10:44:11;10.73;;;8.27;;
18336;SDS011;9294;51.106;7.028;2023-04-16T10:46:39;10.02;;;7.93;;
18336;SDS011;9294;51.106;7.028;2023-04-16T10:49:12;9.05;;;7.82;;
18336;SDS011;9294;51.106;7.028;2023-04-16T10:51:40;8.85;;;8.05;;
18336;SDS011;9294;51.106;7.028;2023-04-16T10:54:20;9.02;;;7.78;;
18336;SDS011;9294;51.106;7.028;2023-04-16T10:56:53;9.18;;;8.18;;
18336;SDS011;9294;51.106;7.028;2023-04-16T10:59:23;8.32;;;7.55;;
18336;SDS011;9294;51.106;7.028;2023-04-16T11:01:55;10.90;;;8.25;;
18336;SDS011;9294;51.106;7.028;2023-04-16T11:04:25;12.13;;;7.72;;
18336;SDS011;9294;51.106;7.028;2023-04-16T11:07:04;8.75;;;7.95;;
18336;SDS011;9294;51.106;7.028;2023-04-16T11:09:45;7.80;;;7.13;;
18336;SDS011;9294;51.106;7.028;2023-04-16T11:12:25;8.43;;;7.55;;
18336;SDS011;9294;51.106;7.028;2023-04-16T11:14:58;8.63;;;7.68;;
18336;SDS011;9294;51.106;7.028;2023-04-16T11:17:27;8.20;;;7.50;;
18336;SDS011;9294;51.106;7.028;2023-04-16T11:19:56;9.60;;;6.97;;
18336;SDS011;9294;51.106;7.028;2023-04-16T11:22:23;7.65;;;6.95;;
18336;SDS011;9294;51.106;7.028;2023-04-16T11:24:52;8.70;;;7.55;;
18336;SDS011;9294;51.106;7.028;2023-04-16T11:27:20;7.65;;;6.95;;
18336;SDS011;9294;51.106;7.028;2023-04-16T11:29:56;9.32;;;8.43;;
18336;SDS011;9294;51.106;7.028;2023-04-16T11:32:24;8.65;;;7.88;;
18336;SDS011;9294;51.106;7.028;2023-04-16T11:34:50;9.40;;;8.60;;
18336;SDS011;9294;51.106;7.028;2023-04-16T11:37:18;11.43;;;8.43;;
18336;SDS011;9294;51.106;7.028;2023-04-16T11:39:47;9.75;;;8.73;;
18336;SDS011;9294;51.106;7.028;2023-04-16T11:42:18;10.55;;;8.05;;
18336;SDS011;9294;51.106;7.028;2023-04-16T11:44:46;9.98;;;8.73;;
18336;SDS011;9294;51.106;7.028;2023-04-16T11:47:18;9.55;;;8.50;;
18336;SDS011;9294;51.106;7.028;2023-04-16T11:49:45;9.68;;;8.70;;
18336;SDS011;9294;51.106;7.028;2023-04-16T11:52:12;10.65;;;8.45;;
18336;SDS011;9294;51.106;7.028;2023-04-16T11:54:40;10.15;;;9.13;;
18336;SDS011;9294;51.106;7.028;2023-04-16T11:57:06;9.25;;;8.45;;
18336;SDS011;9294;51.106;7.028;2023-04-16T11:59:33;8.57;;;7.80;;
18336;SDS011;9294;51.106;7.028;2023-04-16T12:02:01;9.82;;;8.93;;
18336;SDS011;9294;51.106;7.028;2023-04-16T12:04:29;9.82;;;8.80;;
18336;SDS011;9294;51.106;7.028;2023-04-16T12:07:08;12.45;;;8.50;;
18336;SDS011;9294;51.106;7.028;2023-04-16T12:09:37;10.50;;;8.80;;
18336;SDS011;9294;51.106;7.028;2023-04-16T12:12:05;9.38;;;7.93;;
18336;SDS011;9294;51.106;7.028;2023-04-16T12:14:50;11.40;;;8.57;;
18336;SDS011;9294;51.106;7.028;2023-04-16T12:17:17;11.15;;;8.18;;
18336;SDS011;9294;51.106;7.028;2023-04-16T12:19:49;9.93;;;8.38;;
18336;SDS011;9294;51.106;7.028;2023-04-16T12:22:16;11.00;;;9.05;;
18336;SDS011;9294;51.106;7.028;2023-04-16T12:24:43;9.38;;;8.05;;
18336;SDS011;9294;51.106;7.028;2023-04-16T12:27:10;10.07;;;7.97;;
18336;SDS011;9294;51.106;7.028;2023-04-16T12:29:37;8.98;;;8.05;;
18336;SDS011;9294;51.106;7.028;2023-04-16T12:32:03;8.90;;;8.10;;
18336;SDS011;9294;51.106;7.028;2023-04-16T12:34:30;12.05;;;8.07;;
18336;SDS011;9294;51.106;7.028;2023-04-16T12:37:05;9.40;;;8.45;;
18336;SDS011;9294;51.106;7.028;2023-04-16T12:39:33;9.35;;;8.27;;
18336;SDS011;9294;51.106;7.028;2023-04-16T12:42:00;8.60;;;7.95;;
18336;SDS011;9294;51.106;7.028;2023-04-16T12:44:27;9.35;;;8.48;;
18336;SDS011;9294;51.106;7.028;2023-04-16T12:46:54;12.10;;;9.13;;
18336;SDS011;9294;51.106;7.028;2023-04-16T12:49:21;10.88;;;8.73;;
18336;SDS011;9294;51.106;7.028;2023-04-16T12:51:47;11.35;;;8.35;;
18336;SDS011;9294;51.106;7.028;2023-04-16T12:54:15;11.35;;;8.40;;
18336;SDS011;9294;51.106;7.028;2023-04-16T12:56:42;9.13;;;8.32;;
18336;SDS011;9294;51.106;7.028;2023-04-16T12:59:09;9.10;;;8.27;;
18336;SDS011;9294;51.106;7.028;2023-04-16T13:01:36;9.07;;;7.70;;
18336;SDS011;9294;51.106;7.028;2023-04-16T13:04:03;9.88;;;7.82;;
18336;SDS011;9294;51.106;7.028;2023-04-16T13:06:29;10.02;;;8.43;;
18336;SDS011;9294;51.106;7.028;2023-04-16T13:08:57;10.40;;;8.02;;
18336;SDS011;9294;51.106;7.028;2023-04-16T13:11:26;9.13;;;8.32;;
18336;SDS011;9294;51.106;7.028;2023-04-16T13:13:53;14.48;;;8.35;;
18336;SDS011;9294;51.106;7.028;2023-04-16T13:16:19;15.60;;;8.20;;
18336;SDS011;9294;51.106;7.028;2023-04-16T13:18:46;12.73;;;8.80;;
18336;SDS011;9294;51.106;7.028;2023-04-16T13:21:13;10.88;;;8.90;;
18336;SDS011;9294;51.106;7.028;2023-04-16T13:23:39;16.05;;;8.48;;
18336;SDS011;9294;51.106;7.028;2023-04-16T13:26:06;9.85;;;8.63;;
18336;SDS011;9294;51.106;7.028;2023-04-16T13:28:34;9.15;;;7.88;;
18336;SDS011;9294;51.106;7.028;2023-04-16T13:31:01;10.35;;;8.30;;
18336;SDS011;9294;51.106;7.028;2023-04-16T13:33:28;8.63;;;7.55;;
18336;SDS011;9294;51.106;7.028;2023-04-16T13:35:54;8.48;;;7.75;;
18336;SDS011;9294;51.106;7.028;2023-04-16T13:38:21;8.40;;;7.63;;
18336;SDS011;9294;51.106;7.028;2023-04-16T13:40:48;9.57;;;7.78;;
18336;SDS011;9294;51.106;7.028;2023-04-16T13:43:15;10.68;;;8.00;;
18336;SDS011;9294;51.106;7.028;2023-04-16T13:45:44;8.57;;;7.85;;
18336;SDS011;9294;51.106;7.028;2023-04-16T13:48:11;8.25;;;7.55;;
18336;SDS011;9294;51.106;7.028;2023-04-16T13:50:37;11.57;;;7.78;;
18336;SDS011;9294;51.106;7.028;2023-04-16T13:53:04;10.32;;;8.27;;
18336;SDS011;9294;51.106;7.028;2023-04-16T13:55:31;8.85;;;7.95;;
18336;SDS011;9294;51.106;7.028;2023-04-16T13:57:57;9.23;;;7.70;;
18336;SDS011;9294;51.106;7.028;2023-04-16T14:00:24;10.90;;;8.18;;
18336;SDS011;9294;51.106;7.028;2023-04-16T14:02:53;8.63;;;7.68;;
18336;SDS011;9294;51.106;7.028;2023-04-16T14:05:20;9.95;;;7.68;;
18336;SDS011;9294;51.106;7.028;2023-04-16T14:07:48;8.65;;;7.95;;
18336;SDS011;9294;51.106;7.028;2023-04-16T14:10:15;12.63;;;8.75;;
18336;SDS011;9294;51.106;7.028;2023-04-16T14:12:42;8.38;;;7.55;;
18336;SDS011;9294;51.106;7.028;2023-04-16T14:15:09;8.35;;;7.55;;
18336;SDS011;9294;51.106;7.028;2023-04-16T14:17:38;8.77;;;7.50;;
18336;SDS011;9294;51.106;7.028;2023-04-16T14:20:07;8.40;;;7.60;;
18336;SDS011;9294;51.106;7.028;2023-04-16T14:22:35;7.38;;;6.82;;
18336;SDS011;9294;51.106;7.028;2023-04-16T14:25:02;7.57;;;6.88;;
18336;SDS011;9294;51.106;7.028;2023-04-16T14:27:30;9.07;;;7.53;;
18336;SDS011;9294;51.106;7.028;2023-04-16T14:29:56;7.93;;;7.20;;
18336;SDS011;9294;51.106;7.028;2023-04-16T14:32:23;8.40;;;7.60;;
18336;SDS011;9294;51.106;7.028;2023-04-16T14:34:50;7.72;;;6.95;;
18336;SDS011;9294;51.106;7.028;2023-04-16T14:37:18;8.05;;;7.35;;
18336;SDS011;9294;51.106;7.028;2023-04-16T14:39:45;7.60;;;6.72;;
18336;SDS011;9294;51.106;7.028;2023-04-16T14:42:12;8.45;;;7.65;;
18336;SDS011;9294;51.106;7.028;2023-04-16T14:44:39;7.93;;;7.32;;
18336;SDS011;9294;51.106;7.028;2023-04-16T14:47:05;7.10;;;6.63;;
18336;SDS011;9294;51.106;7.028;2023-04-16T14:49:32;13.23;;;7.20;;
18336;SDS011;9294;51.106;7.028;2023-04-16T14:51:59;9.05;;;6.70;;
18336;SDS011;9294;51.106;7.028;2023-04-16T14:54:30;7.78;;;6.93;;
18336;SDS011;9294;51.106;7.028;2023-04-16T14:56:57;8.95;;;8.02;;
18336;SDS011;9294;51.106;7.028;2023-04-16T14:59:24;8.05;;;7.28;;
18336;SDS011;9294;51.106;7.028;2023-04-16T15:01:51;8.70;;;7.80;;